Lalla Fatma N'soumer — C6TT8 — position and weather

sailwx.info

Track history (hours):
 
Tides and Currents Weather Stations Pressure Air Temp Water Temp Dewpoint Dewpoint Depression Visibility Wind Speed Wind Dir Waves Ship Positions

Lalla Fatma N'soumer

Last reported at 2018-Jan-18 13:28 UTC. Time now 2018-Jan-18 13:56 UTC.
Position N 37°57' E 023°22'.

Length 292 m; draft 10.9 m.

Type: Ship (hazmat cat D). MMSI: 311775000.

Date/timePositionNaut miles runAvg speedWind from/ knotsBaromVisibWave heightAir tempDewpointWater temp
2018-Jan-18 13:28N 37°57' E 023°22'0 0.0
2018-Jan-18 12:58N 37°57' E 023°22'0 0.1
2018-Jan-18 12:28N 37°57' E 023°23'0 0.1
2018-Jan-18 11:58N 37°57' E 023°23'0 0.0
2018-Jan-18 11:28N 37°57' E 023°23'0 0.1
2018-Jan-18 11:00N 37°57' E 023°22'0 0.1
2018-Jan-18 10:30N 37°57' E 023°23'0 0.1
2018-Jan-18 10:00N 37°57' E 023°22'0 0.1
2018-Jan-18 09:30N 37°57' E 023°23'2 3.6
2018-Jan-18 09:00N 37°55' E 023°22'3 5.6
2018-Jan-18 08:31N 37°53' E 023°21'4 8.3
2018-Jan-18 08:00N 37°50' E 023°26'5 9.7
2018-Jan-18 07:31N 37°50' E 023°32'5 9.7
2018-Jan-18 07:00N 37°50' E 023°38'5 9.2
2018-Jan-18 06:30N 37°47' E 023°42'4 8.5
2018-Jan-18 06:00N 37°43' E 023°44'4 8.2
2018-Jan-18 05:30N 37°39' E 023°47'4 8.4
2018-Jan-18 05:00N 37°35' E 023°46'5 9.8
2018-Jan-18 04:30N 37°30' E 023°45'710.1
2018-Jan-18 03:51N 37°24' E 023°45'810.2
2018-Jan-18 03:03N 37°16' E 023°45'110.4
2018-Jan-18 02:56N 37°15' E 023°44'510.5
2018-Jan-18 02:28N 37°10' E 023°44'5 9.8
2018-Jan-18 02:00N 37°05' E 023°45'4 7.7
2018-Jan-18 01:28N 37°01' E 023°45'4 8.8
2018-Jan-18 01:00N 36°57' E 023°44'10 9.8
2018-Jan-18 00:00N 36°47' E 023°44'010.0
2018-Jan-17 23:57N 36°47' E 023°44'  
Track history (hours):
 
Tides and Currents Weather Stations Pressure Air Temp Water Temp Dewpoint Dewpoint Depression Visibility Wind Speed Wind Dir Waves Ship Positions

Lalla Fatma N'soumer

Last reported at 2018-Jan-18 13:28 UTC. Time now 2018-Jan-18 13:56 UTC.
Position N 37°57' E 023°22'.

Length 292 m; draft 10.9 m.

Type: Ship (hazmat cat D). MMSI: 311775000.

Date/timePositionNaut miles runAvg speedWind from/ knotsBaromVisibWave heightAir tempDewpointWater temp
2018-Jan-18 13:28N 37°57' E 023°22'0 0.0
2018-Jan-18 12:58N 37°57' E 023°22'0 0.1
2018-Jan-18 12:28N 37°57' E 023°23'0 0.1
2018-Jan-18 11:58N 37°57' E 023°23'0 0.0
2018-Jan-18 11:28N 37°57' E 023°23'0 0.1
2018-Jan-18 11:00N 37°57' E 023°22'0 0.1
2018-Jan-18 10:30N 37°57' E 023°23'0 0.1
2018-Jan-18 10:00N 37°57' E 023°22'0 0.1
2018-Jan-18 09:30N 37°57' E 023°23'2 3.6
2018-Jan-18 09:00N 37°55' E 023°22'3 5.6
2018-Jan-18 08:31N 37°53' E 023°21'4 8.3
2018-Jan-18 08:00N 37°50' E 023°26'5 9.7
2018-Jan-18 07:31N 37°50' E 023°32'5 9.7
2018-Jan-18 07:00N 37°50' E 023°38'5 9.2
2018-Jan-18 06:30N 37°47' E 023°42'4 8.5
2018-Jan-18 06:00N 37°43' E 023°44'4 8.2
2018-Jan-18 05:30N 37°39' E 023°47'4 8.4
2018-Jan-18 05:00N 37°35' E 023°46'5 9.8
2018-Jan-18 04:30N 37°30' E 023°45'710.1
2018-Jan-18 03:51N 37°24' E 023°45'810.2
2018-Jan-18 03:03N 37°16' E 023°45'110.4
2018-Jan-18 02:56N 37°15' E 023°44'510.5
2018-Jan-18 02:28N 37°10' E 023°44'5 9.8
2018-Jan-18 02:00N 37°05' E 023°45'4 7.7
2018-Jan-18 01:28N 37°01' E 023°45'4 8.8
2018-Jan-18 01:00N 36°57' E 023°44'10 9.8
2018-Jan-18 00:00N 36°47' E 023°44'010.0
2018-Jan-17 23:57N 36°47' E 023°44'  

Dump ship's entire track history